Latest Weather Observations for Sydney Airport

IDN60901

Issued at 6:11 am EDT Saturday 18 November 2017 (issued every 10 minutes, with the page automatically refreshed every 10 minutes)

About weather observations | Map of Sydney area stations | Latest observations for Sydney area | Other Formats
Station Details ID: 066037 Name: SYDNEY AIRPORT AMO Lat: -33.95 Lon: 151.17 Height: 6.0 m
Data from the previous 72 hours. | See also: Recent months at Sydney Airport
Date/Time
EDT
Temp
°C
App
Temp
°C
Dew
Point
°C
Rel
Hum
%
Delta-T
°C
Wind Press
QNH
hPa
Press
MSL
hPa
Rain since
9am
mm
Dir  Spd
km/h
Gust
km/h
Spd
kts
Gust
kts
18/06:00am 20.7 18.8 15.7 73 3.0 NNE 20 26 11 14 1018.2 1018.2 0.0
18/05:30am 19.7 17.6 16.2 80 2.1 ENE 22 30 12 16 1018.0 1018.0 0.0
18/05:00am 20.4 17.6 15.4 73 3.0 ENE 24 30 13 16 1017.6 1017.6 0.0
18/04:30am 20.3 17.2 15.5 74 2.8 ENE 26 33 14 18 1017.3 1017.3 0.0
18/04:00am 20.3 16.4 15.5 74 2.8 ENE 30 37 16 20 1017.4 1017.4 0.0
18/03:30am 20.3 17.6 15.7 75 2.7 NE 24 32 13 17 1017.6 1017.6 0.0
18/03:00am 20.7 16.9 14.8 69 3.5 NE 28 37 15 20 1017.7 1017.7 0.0
18/02:30am 20.7 16.9 14.8 69 3.5 NE 28 35 15 19 1017.7 1017.7 0.0
18/02:00am 20.9 17.4 15.4 71 3.3 NE 28 33 15 18 1017.9 1017.9 0.0
18/01:30am 21.0 18.3 15.5 71 3.3 NNE 24 33 13 18 1018.2 1018.2 0.0
18/01:00am 20.9 18.0 15.2 70 3.4 NE 24 33 13 18 1018.6 1018.6 0.0
18/12:30am 21.1 18.4 15.6 71 3.3 NE 24 32 13 17 1018.5 1018.5 0.0
18/12:00am 20.4 18.6 16.0 76 2.6 NE 20 28 11 15 1018.8 1018.8 0.0
 
Date/Time
EDT
Temp
°C
App
Temp
°C
Dew
Point
°C
Rel
Hum
%
Delta-T
°C
Wind Press
QNH
hPa
Press
MSL
hPa
Rain since
9am
mm
Dir  Spd
km/h
Gust
km/h
Spd
kts
Gust
kts
17/11:30pm 21.8 19.5 15.6 68 3.7 NNE 22 32 12 17 1018.7 1018.7 0.0
17/11:00pm 21.1 19.1 15.6 71 3.3 NE 20 30 11 16 1018.8 1018.8 0.0
17/10:30pm 21.6 18.8 15.4 68 3.7 ENE 24 41 13 22 1018.8 1018.8 0.0
17/10:00pm 21.3 19.4 15.2 68 3.6 NE 19 26 10 14 1018.5 1018.5 0.0
17/09:30pm 21.5 18.7 15.3 68 3.7 NE 24 33 13 18 1018.4 1018.4 0.0
17/09:00pm 21.6 19.2 15.4 68 3.7 NE 22 30 12 16 1018.2 1018.2 0.0
17/08:30pm 22.0 19.4 15.8 68 3.7 ENE 24 30 13 16 1018.0 1018.0 0.0
17/08:00pm 22.0 19.2 15.4 66 3.9 NE 24 35 13 19 1017.8 1017.8 0.0
17/07:30pm 21.9 19.7 15.0 65 4.1 ENE 20 32 11 17 1017.7 1017.7 0.0
17/07:00pm 22.5 19.4 14.6 61 4.6 ENE 24 37 13 20 1017.3 1017.3 0.0
17/06:30pm 23.1 19.2 14.4 58 5.1 ENE 28 39 15 21 1016.9 1016.9 0.0
17/06:00pm 23.4 18.2 14.4 57 5.3 NE 35 46 19 25 1016.2 1016.2 0.0
17/05:32pm 24.9 20.0 15.2 54 5.8 ENE 35 54 19 29 1016.2 1016.2 0.0
17/05:30pm 24.1 19.0 14.8 56 5.5 ENE 35 52 19 28 1016.2 1016.2 0.0
17/05:17pm 23.8 19.2 15.0 57 5.3 ENE 33 52 18 28 1016.1 1016.1 0.0
17/05:00pm 23.6 19.4 15.6 61 4.8 NE 32 41 17 22 1016.1 1016.1 0.0
17/04:30pm 24.2 20.3 16.5 62 4.7 NE 32 39 17 21 1016.1 1016.1 0.0
17/04:00pm 24.1 18.7 16.1 61 4.9 NE 39 59 21 32 1016.1 1016.1 0.0
17/03:54pm 23.6 18.0 15.4 60 4.9 NE 39 59 21 32 1016.2 1016.2 0.0
17/03:30pm 24.1 18.3 13.9 53 6.0 NE 37 48 20 26 1016.6 1016.6 0.0
17/03:00pm 24.0 16.7 12.9 50 6.4 NE 43 54 23 29 1016.6 1016.6 0.0
17/02:30pm 24.0 16.5 13.8 53 6.0 NE 46 59 25 32 1016.8 1016.8 0.0
17/02:00pm 24.4 18.0 14.2 53 6.0 NE 41 54 22 29 1017.0 1017.0 0.0
17/01:30pm 25.8 18.5 15.5 53 6.2 NE 48 63 26 34 1016.9 1016.9 0.0
17/01:00pm 25.5 18.9 14.9 52 6.3 NE 43 59 23 32 1017.4 1017.4 0.0
17/12:30pm 24.7 18.4 15.6 57 5.5 NE 43 54 23 29 1017.8 1017.8 0.0
17/12:00pm 23.6 17.1 15.6 61 4.8 NE 44 57 24 31 1017.9 1017.9 0.0
17/11:30am 23.4 16.8 14.9 59 5.1 NE 43 57 23 31 1017.9 1017.9 0.0
17/11:00am 24.2 19.2 15.1 56 5.4 NE 35 54 19 29 1018.1 1018.1 0.0
17/10:57am 24.0 19.0 15.0 57 5.4 NNE 35 54 19 29 1018.0 1018.0 0.0
17/10:30am 23.8 17.7 15.3 59 5.1 NNE 41 54 22 29 1017.9 1017.9 0.0
17/10:00am 23.7 17.3 15.5 60 4.9 NNE 43 56 23 30 1017.9 1017.9 0.0
17/09:38am 23.7 18.8 15.2 59 5.1 NNE 35 56 19 30 1017.9 1017.9 0.0
17/09:30am 23.2 18.4 15.5 62 4.6 NNE 35 46 19 25 1017.9 1017.9 0.0
17/09:00am 23.1 18.3 15.7 63 4.4 NE 35 44 19 24 1018.0 1018.0 0.2
17/08:30am 22.6 19.4 16.2 67 3.9 NNE 28 35 15 19 1017.9 1017.9 0.0
17/08:00am 21.0 17.6 15.8 72 3.1 NNE 28 37 15 20 1017.7 1017.7 0.0
17/07:30am 21.4 18.7 15.7 70 3.4 NNE 24 32 13 17 1017.4 1017.4 0.0
17/07:00am 21.0 18.4 16.0 73 3.0 NNE 24 32 13 17 1016.7 1016.7 0.0
17/06:30am 20.4 17.4 15.8 75 2.7 NNE 26 32 14 17 1016.3 1016.3 0.0
17/06:00am 20.0 16.5 15.6 76 2.6 NNE 28 33 15 18 1016.1 1016.1 0.0
17/05:30am 20.0 16.9 15.6 76 2.6 NE 26 33 14 18 1016.1 1016.1 0.0
17/05:00am 20.1 17.7 15.5 75 2.7 NNE 22 28 12 15 1016.1 1016.1 0.0
17/04:30am 20.1 18.0 15.1 73 2.9 NE 20 28 11 15 1016.2 1016.2 0.0
17/04:00am 19.8 17.6 15.0 74 2.8 NE 20 26 11 14 1016.0 1016.0 0.0
17/03:30am 20.0 18.1 15.2 74 2.8 NE 19 26 10 14 1016.1 1016.1 0.0
17/03:00am 19.9 18.5 15.5 76 2.6 NE 17 26 9 14 1016.2 1016.2 0.0
17/02:30am 20.0 17.1 15.2 74 2.8 NE 24 32 13 17 1016.3 1016.3 0.0
17/02:00am 19.8 17.7 15.2 75 2.7 NE 20 26 11 14 1016.3 1016.3 0.0
17/01:30am 20.2 17.3 15.2 73 2.9 NE 24 32 13 17 1016.4 1016.4 0.0
17/01:00am 20.0 17.2 15.4 75 2.7 NNE 24 30 13 16 1016.2 1016.2 0.0
17/12:30am 20.0 16.8 15.2 74 2.8 NNE 26 37 14 20 1016.1 1016.1 0.0
17/12:00am 20.5 17.4 15.5 73 3.0 NNE 26 35 14 19 1016.5 1016.5 0.0
 
Date/Time
EDT
Temp
°C
App
Temp
°C
Dew
Point
°C
Rel
Hum
%
Delta-T
°C
Wind Press
QNH
hPa
Press
MSL
hPa
Rain since
9am
mm
Dir  Spd
km/h
Gust
km/h
Spd
kts
Gust
kts
16/11:30pm 20.8 17.8 15.8 73 3.0 NNE 26 35 14 19 1016.7 1016.7 0.0
16/11:00pm 20.7 17.7 15.9 74 2.9 NNE 26 32 14 17 1016.6 1016.6 0.0
16/10:30pm 20.8 18.2 15.8 73 3.0 NNE 24 32 13 17 1016.5 1016.5 0.0
16/10:00pm 21.0 17.8 16.2 74 2.9 NNE 28 35 15 19 1016.5 1016.5 0.0
16/09:30pm 20.9 16.8 15.9 73 3.0 NE 32 44 17 24 1016.4 1016.4 0.0
16/09:00pm 21.3 17.1 15.6 70 3.4 NE 32 39 17 21 1016.2 1016.2 0.0
16/08:30pm 21.3 16.8 15.4 69 3.5 NE 33 43 18 23 1015.8 1015.8 0.0
16/08:00pm 21.3 16.7 16.0 72 3.2 NE 35 46 19 25 1015.7 1015.7 0.0
16/07:30pm 21.4 17.1 16.8 75 2.8 NE 35 46 19 25 1015.4 1015.4 0.0
16/07:00pm 21.7 18.1 16.2 71 3.3 NE 30 37 16 20 1015.3 1015.3 0.0
16/06:30pm 22.0 19.3 16.5 71 3.3 NE 26 35 14 19 1015.0 1015.0 0.0
16/06:00pm 21.8 19.0 17.2 75 2.8 NE 28 37 15 20 1014.8 1014.8 0.0
16/05:30pm 21.7 18.2 17.5 77 2.6 NNE 32 37 17 20 1014.5 1014.5 0.0
16/05:00pm 21.6 17.3 16.8 74 2.9 NNE 35 44 19 24 1014.4 1014.4 0.0
16/04:30pm 22.2 17.3 15.3 65 4.1 NE 35 46 19 25 1014.5 1014.5 0.0
16/04:00pm 22.9 18.3 15.2 62 4.6 NE 33 48 18 26 1014.4 1014.4 0.0
16/03:30pm 24.2 19.4 15.7 59 5.1 NNE 35 48 19 26 1014.5 1014.5 0.0
16/03:16pm 24.0 18.7 15.2 58 5.3 NE 37 56 20 30 1014.7 1014.7 0.0
16/03:00pm 23.9 18.1 14.9 57 5.4 NE 39 50 21 27 1014.6 1014.6 0.0
16/02:30pm 24.5 17.7 14.3 53 6.0 NE 43 52 23 28 1014.8 1014.8 0.0
16/02:00pm 24.3 18.1 13.8 52 6.2 NE 39 52 21 28 1015.0 1015.0 0.0
16/01:30pm 25.4 18.5 13.9 49 6.8 NE 43 54 23 29 1015.2 1015.2 0.0
16/01:00pm 25.1 18.2 13.9 49 6.6 NE 43 56 23 30 1015.5 1015.5 0.0
16/12:30pm 25.0 17.9 13.5 48 6.7 NE 43 56 23 30 1015.8 1015.8 0.0
16/12:22pm 24.7 17.8 13.9 51 6.4 NE 43 56 23 30 1015.9 1015.9 0.0
16/12:00pm 24.6 18.3 13.5 50 6.5 NE 39 54 21 29 1015.9 1015.9 0.0
16/11:30am 24.7 18.3 14.2 52 6.2 NE 41 54 22 29 1015.9 1015.9 0.0
16/11:00am 23.4 17.2 13.8 54 5.6 NNE 39 50 21 27 1016.4 1016.4 0.0
16/10:30am 24.0 17.8 13.8 53 6.0 NNE 39 50 21 27 1016.2 1016.2 0.0
16/10:00am 24.1 18.3 13.9 53 6.0 NNE 37 50 20 27 1016.4 1016.4 0.0
16/09:30am 23.2 17.1 13.1 53 5.8 NNE 37 50 20 27 1016.7 1016.7 0.0
16/09:00am 22.9 17.1 12.8 53 5.8 NNE 35 46 19 25 1016.7 1016.7 0.0
16/08:30am 22.8 17.8 13.3 55 5.5 NNE 32 41 17 22 1016.6 1016.6 0.0
16/08:00am 21.8 17.6 13.4 59 4.8 NNE 28 39 15 21 1016.3 1016.3 0.0
16/07:30am 21.3 18.4 14.0 63 4.2 NNE 22 32 12 17 1016.1 1016.1 0.0
16/07:00am 21.0 20.0 14.6 67 3.7 NNE 13 19 7 10 1016.0 1016.0 0.0
16/06:30am 20.2 19.5 14.3 69 3.4 NNE 11 15 6 8 1015.8 1015.8 0.0
16/06:00am 19.8 19.1 14.4 71 3.1 NNE 11 13 6 7 1015.7 1015.7 0.0
16/05:30am 19.2 17.7 14.2 73 2.9 NNE 15 19 8 10 1015.6 1015.6 0.0
16/05:00am 19.8 18.1 14.6 72 3.0 NNE 17 20 9 11 1015.5 1015.5 0.0
16/04:30am 19.5 17.6 14.3 72 3.0 N 17 20 9 11 1015.6 1015.6 0.0
16/04:00am 19.8 18.1 14.6 72 3.0 NNE 17 20 9 11 1015.6 1015.6 0.0
16/03:30am 19.6 17.4 14.4 72 3.0 NNE 19 24 10 13 1015.6 1015.6 0.0
16/03:00am 19.6 17.4 14.4 72 3.0 NNE 19 24 10 13 1015.8 1015.8 0.0
16/02:30am 19.7 16.8 14.1 70 3.2 NNE 22 32 12 17 1016.1 1016.1 0.0
16/02:00am 19.6 16.7 14.0 70 3.2 NNE 22 30 12 16 1016.3 1016.3 0.0
16/01:30am 19.9 16.8 14.5 71 3.1 NNE 24 32 13 17 1016.8 1016.8 0.0
16/01:00am 20.4 17.2 14.3 68 3.5 NNE 24 30 13 16 1017.1 1017.1 0.0
16/12:30am 20.2 16.8 13.6 66 3.8 NNE 24 35 13 19 1017.4 1017.4 0.0
16/12:00am 20.3 16.0 13.3 64 4.0 NNE 28 35 15 19 1017.7 1017.7 0.0
 
Date/Time
EDT
Temp
°C
App
Temp
°C
Dew
Point
°C
Rel
Hum
%
Delta-T
°C
Wind Press
QNH
hPa
Press
MSL
hPa
Rain since
9am
mm
Dir  Spd
km/h
Gust
km/h
Spd
kts
Gust
kts
15/11:30pm 20.7 16.5 13.4 63 4.2 NNE 28 33 15 18 1017.6 1017.6 0.0
15/11:00pm 21.0 16.6 12.9 60 4.6 NNE 28 37 15 20 1017.8 1017.8 0.0
15/10:30pm 21.3 17.4 13.2 60 4.6 NNE 26 39 14 21 1017.8 1017.8 0.0
15/10:00pm 21.3 17.2 13.7 62 4.4 NNE 28 37 15 20 1017.7 1017.7 0.0
15/09:30pm 21.7 17.6 14.8 65 4.1 NNE 30 41 16 22 1017.7 1017.7 0.0
15/09:00pm 21.2 16.6 14.6 66 3.9 NNE 32 50 17 27 1017.3 1017.3 0.0
15/08:54pm 21.6 17.0 14.7 65 4.1 NE 32 50 17 27 1017.2 1017.2 0.0
15/08:30pm 21.3 17.9 14.7 66 3.9 NE 26 37 14 20 1017.0 1017.0 0.0
15/08:00pm 22.2 18.4 14.6 62 4.5 NE 28 37 15 20 1017.1 1017.1 0.0
15/07:30pm 22.3 17.6 14.4 61 4.6 NE 32 39 17 21 1016.9 1016.9 0.0
15/07:00pm 22.7 18.1 14.5 60 4.8 NE 32 44 17 24 1016.6 1016.6 0.0
15/06:30pm 22.8 17.2 14.4 59 4.9 NE 37 50 20 27 1016.1 1016.1 0.0
15/06:00pm 23.9 18.1 14.9 57 5.4 NE 39 52 21 28 1016.2 1016.2 0.0
15/05:30pm 23.4 16.7 14.7 58 5.2 ENE 43 56 23 30 1015.6 1015.6 0.0
15/05:00pm 23.6 16.9 14.6 57 5.3 NE 43 61 23 33 1016.0 1016.0 0.0
15/04:30pm 24.1 17.2 14.5 55 5.7 NE 44 54 24 29 1016.2 1016.2 0.0
15/04:00pm 24.9 19.1 13.8 50 6.5 NE 37 52 20 28 1016.4 1016.4 0.0
15/03:30pm 24.4 18.1 13.6 51 6.3 NE 39 48 21 26 1016.5 1016.5 0.0
15/03:00pm 26.0 19.1 12.8 44 7.7 NE 41 50 22 27 1017.0 1017.0 0.0
15/02:30pm 25.6 19.4 12.8 45 7.4 NE 37 50 20 27 1017.3 1017.3 0.0
15/02:00pm 25.2 19.0 12.8 46 7.2 NE 37 50 20 27 1017.6 1017.6 0.0
15/01:30pm 24.4 18.1 11.0 43 7.5 NE 35 43 19 23 1018.2 1018.2 0.0
15/01:00pm 25.2 19.0 11.4 42 7.8 NE 35 48 19 26 1018.4 1018.4 0.0
15/12:30pm 24.2 18.4 11.5 45 7.2 NE 33 39 18 21 1018.8 1018.8 0.0
15/12:00pm 24.1 18.6 12.4 48 6.7 NE 33 41 18 22 1019.0 1019.0 0.0
15/11:30am 24.3 20.0 13.2 50 6.4 NNE 28 33 15 18 1019.5 1019.5 0.0
15/11:00am 24.6 20.3 12.2 46 7.1 NNE 26 35 14 19 1019.9 1019.9 0.0
15/10:30am 23.9 20.5 12.5 49 6.5 NNE 22 30 12 16 1020.1 1020.1 0.0
15/10:00am 23.5 20.0 13.4 53 5.8 ENE 24 30 13 16 1020.1 1020.1 0.0
15/09:30am 23.0 21.2 12.0 50 6.2 SE 13 17 7 9 1020.2 1020.2 0.0
15/09:00am 22.5 22.2 13.3 56 5.3 ESE 7 13 4 7 1020.3 1020.3 0.0
15/08:30am 19.9 21.0 13.6 67 3.6 CALM 0 0 0 0 1020.3 1020.3 0.0
15/08:00am 19.4 20.5 13.6 69 3.3 CALM 0 6 0 3 1020.1 1020.1 0.0
15/07:30am 18.8 19.5 12.3 66 3.6 CALM 0 0 0 0 1020.1 1020.1 0.0
15/07:00am 18.1 17.6 12.8 71 3.0 WNW 7 13 4 7 1020.0 1020.0 0.0
15/06:30am 17.4 16.6 12.9 75 2.5 NW 9 15 5 8 1019.9 1019.9 0.0

Latest Capital City Observations: Canberra | Sydney | Melbourne | Brisbane | Adelaide | Perth | Hobart | Darwin

Other Formats:

Comma delimited format used in spreadsheet applications
http://www.bom.gov.au/fwo/IDN60901/IDN60901.94767.axf

JavaScript Object Notation format (JSON) in row-major order
http://www.bom.gov.au/fwo/IDN60901/IDN60901.94767.json